createdAt,value
2022-08-30T00:01:33.594Z,99.90
2022-08-30T00:04:01.455Z,99.90
2022-08-30T00:06:29.524Z,99.10
2022-08-30T00:08:59.795Z,99.30
2022-08-30T00:11:28.106Z,99.90
2022-08-30T00:13:56.528Z,99.90
2022-08-30T00:16:24.514Z,99.90
2022-08-30T00:18:51.515Z,99.90
2022-08-30T00:21:18.963Z,99.90
2022-08-30T00:23:45.736Z,99.90
2022-08-30T00:26:14.808Z,99.90
2022-08-30T00:28:41.512Z,99.90
2022-08-30T00:31:08.648Z,99.90
2022-08-30T00:33:35.462Z,99.90
2022-08-30T00:36:02.391Z,99.90
2022-08-30T00:38:29.219Z,99.90
2022-08-30T00:40:56.208Z,99.90
2022-08-30T00:45:56.141Z,99.90
2022-08-30T00:48:23.526Z,99.90
2022-08-30T00:50:56.859Z,99.90
2022-08-30T00:53:27.957Z,99.90
2022-08-30T00:55:56.049Z,99.90
2022-08-30T01:30:54.245Z,99.90
2022-08-30T01:33:22.062Z,99.90
2022-08-30T01:35:53.899Z,99.90
2022-08-30T01:38:24.193Z,99.90
2022-08-30T01:40:56.415Z,99.90
2022-08-30T01:43:23.232Z,99.90
2022-08-30T01:45:50.101Z,99.90
2022-08-30T01:48:19.334Z,99.90
2022-08-30T01:50:46.021Z,99.90
2022-08-30T01:53:13.210Z,99.90
2022-08-30T01:55:40.632Z,99.90
2022-08-30T01:58:07.597Z,99.90
2022-08-30T02:00:34.338Z,99.90
2022-08-30T02:03:01.120Z,99.90
2022-08-30T02:05:27.878Z,99.90
2022-08-30T02:07:54.746Z,99.90
2022-08-30T02:10:21.607Z,99.90
2022-08-30T02:12:50.968Z,99.90
2022-08-30T02:15:18.178Z,99.90
2022-08-30T02:17:44.961Z,99.90
2022-08-30T02:20:12.419Z,99.90
2022-08-30T02:22:39.254Z,99.90
2022-08-30T02:25:21.173Z,99.90
2022-08-30T02:27:50.472Z,99.90
2022-08-30T02:30:19.717Z,99.90
2022-08-30T02:32:46.441Z,99.90
2022-08-30T02:35:13.212Z,99.90
2022-08-30T02:37:39.978Z,99.90
2022-08-30T02:40:10.868Z,99.90
2022-08-30T02:42:41.595Z,99.90
2022-08-30T02:45:08.920Z,99.90
2022-08-30T02:47:35.931Z,99.90
2022-08-30T02:50:09.984Z,99.90
2022-08-30T02:52:38.029Z,99.90
2022-08-30T02:55:06.437Z,99.90
2022-08-30T02:57:33.554Z,99.90
2022-08-30T03:00:01.275Z,99.90
2022-08-30T03:02:29.120Z,99.90
2022-08-30T03:04:57.464Z,99.90
2022-08-30T03:07:26.635Z,99.90
2022-08-30T03:09:55.732Z,99.90
2022-08-30T03:12:22.431Z,99.90
2022-08-30T03:14:49.194Z,99.90
2022-08-30T03:17:16.910Z,99.90
2022-08-30T03:19:44.864Z,99.90
2022-08-30T03:22:11.848Z,99.90
2022-08-30T03:24:38.663Z,99.90
2022-08-30T03:27:05.442Z,99.90
2022-08-30T03:29:32.209Z,99.90
2022-08-30T03:31:59.055Z,99.90
2022-08-30T03:34:27.170Z,99.90
2022-08-30T03:36:58.449Z,99.90
2022-08-30T03:39:25.287Z,99.90
2022-08-30T03:41:53.333Z,99.90
2022-08-30T03:44:21.557Z,99.90
2022-08-30T03:46:48.392Z,99.90
2022-08-30T03:49:15.762Z,99.90
2022-08-30T03:51:42.464Z,99.90
2022-08-30T03:54:11.598Z,99.90
2022-08-30T03:56:38.283Z,99.90
2022-08-30T03:59:05.407Z,99.90
2022-08-30T04:01:34.705Z,99.90
2022-08-30T04:04:01.447Z,99.90
2022-08-30T04:06:30.325Z,99.90
2022-08-30T04:08:59.549Z,99.90
2022-08-30T04:11:26.360Z,99.90
2022-08-30T04:13:53.490Z,99.90
2022-08-30T04:16:23.261Z,99.90
2022-08-30T04:18:52.591Z,99.90
2022-08-30T04:21:19.375Z,99.90
2022-08-30T04:23:48.721Z,99.90
2022-08-30T04:26:15.476Z,99.90
2022-08-30T04:28:42.177Z,99.90
2022-08-30T04:31:11.717Z,99.90
2022-08-30T04:33:39.465Z,99.90
2022-08-30T04:36:08.486Z,99.90
2022-08-30T04:38:36.976Z,99.90
2022-08-30T04:41:08.776Z,99.90
2022-08-30T04:43:35.518Z,99.90
2022-08-30T04:46:08.333Z,99.90
2022-08-30T04:48:37.140Z,99.90
2022-08-30T04:51:09.886Z,99.90
2022-08-30T04:53:36.827Z,99.90
2022-08-30T04:56:08.669Z,99.90
2022-08-30T04:58:35.560Z,99.90
2022-08-30T05:01:02.459Z,99.90
2022-08-30T05:03:29.235Z,99.90
2022-08-30T05:05:55.976Z,99.90
2022-08-30T05:08:25.141Z,99.90
2022-08-30T05:10:56.661Z,99.90
2022-08-30T05:13:34.977Z,99.90
2022-08-30T05:16:04.473Z,99.90
2022-08-30T05:18:34.251Z,99.90
2022-08-30T05:21:08.803Z,99.90
2022-08-30T05:23:37.240Z,99.90
2022-08-30T05:26:18.978Z,99.90
2022-08-30T05:28:45.979Z,99.90
2022-08-30T05:31:17.747Z,99.90
2022-08-30T05:33:45.470Z,99.90
2022-08-30T05:36:14.012Z,99.90
2022-08-30T05:38:41.288Z,99.90
2022-08-30T05:41:11.955Z,99.90
2022-08-30T05:43:39.538Z,99.90
2022-08-30T05:46:10.958Z,99.90
2022-08-30T05:48:38.845Z,99.90
2022-08-30T05:51:12.196Z,99.90
2022-08-30T05:53:42.989Z,99.90
2022-08-30T05:56:12.893Z,99.90
2022-08-30T05:58:40.028Z,99.90
2022-08-30T06:01:10.003Z,99.90
2022-08-30T06:03:36.726Z,99.90
2022-08-30T06:06:04.135Z,99.90
2022-08-30T06:08:30.884Z,99.90
2022-08-30T06:10:57.612Z,99.90
2022-08-30T06:13:24.447Z,99.90
2022-08-30T06:15:53.381Z,99.90
2022-08-30T06:18:28.503Z,99.90
2022-08-30T06:20:55.713Z,99.90
2022-08-30T06:23:22.871Z,99.90
2022-08-30T06:25:51.730Z,99.90
2022-08-30T06:28:20.972Z,99.90
2022-08-30T06:30:47.713Z,99.90
2022-08-30T06:33:14.511Z,99.90
2022-08-30T06:35:58.280Z,99.90
2022-08-30T06:38:25.995Z,99.90
2022-08-30T06:40:52.754Z,99.90
2022-08-30T06:43:19.602Z,99.90
2022-08-30T06:45:46.303Z,99.90
2022-08-30T06:48:15.198Z,99.90
2022-08-30T06:50:42.840Z,99.90
2022-08-30T06:53:09.848Z,99.90
2022-08-30T06:55:37.295Z,99.90
2022-08-30T06:58:06.214Z,99.90
2022-08-30T07:00:35.394Z,99.90
2022-08-30T07:03:03.536Z,99.90
2022-08-30T07:05:30.294Z,99.90
2022-08-30T07:07:59.145Z,99.90
2022-08-30T07:10:25.889Z,99.90
2022-08-30T07:12:52.597Z,99.90
2022-08-30T07:15:22.845Z,99.90
2022-08-30T07:18:08.340Z,99.90
2022-08-30T07:23:10.222Z,99.90
2022-08-30T07:25:39.020Z,99.90
2022-08-30T07:28:09.598Z,99.90
2022-08-30T07:30:40.383Z,99.90
2022-08-30T07:33:09.883Z,99.90
2022-08-30T07:35:37.292Z,99.90
2022-08-30T07:38:04.169Z,99.90
2022-08-30T07:40:31.005Z,99.90
2022-08-30T07:42:58.936Z,99.90
2022-08-30T07:45:27.749Z,99.90
2022-08-30T07:47:54.515Z,99.90
2022-08-30T07:50:22.362Z,99.90
2022-08-30T07:52:49.141Z,99.90
2022-08-30T07:55:16.518Z,99.90
2022-08-30T07:57:43.259Z,99.90
2022-08-30T08:00:10.801Z,99.90
2022-08-30T08:02:37.701Z,99.90
2022-08-30T08:05:08.240Z,99.90
2022-08-30T08:07:35.609Z,99.90
2022-08-30T08:10:02.741Z,99.90
2022-08-30T08:12:30.112Z,99.90
2022-08-30T08:14:56.870Z,99.90
2022-08-30T08:17:23.654Z,99.90
2022-08-30T08:19:50.364Z,99.90
2022-08-30T08:22:21.612Z,99.90
2022-08-30T08:24:49.617Z,99.90
2022-08-30T08:27:16.750Z,99.90
2022-08-30T08:29:43.896Z,99.50
2022-08-30T08:32:10.659Z,99.30
2022-08-30T08:34:37.427Z,99.00
2022-08-30T08:37:06.381Z,98.70
2022-08-30T08:39:35.698Z,98.70
2022-08-30T08:42:37.297Z,99.10
2022-08-30T08:45:08.739Z,99.00
2022-08-30T08:47:50.720Z,98.80
2022-08-30T08:50:22.417Z,99.90
2022-08-30T08:53:46.125Z,98.50
2022-08-30T08:56:17.301Z,98.40
2022-08-30T08:58:45.762Z,96.90
2022-08-30T09:01:15.312Z,96.80
2022-08-30T09:03:42.795Z,97.00
2022-08-30T09:06:28.613Z,97.20
2022-08-30T09:08:55.832Z,96.80
2022-08-30T09:11:28.735Z,97.00
2022-08-30T09:13:55.706Z,96.70
2022-08-30T09:16:50.246Z,96.10
2022-08-30T09:19:27.887Z,96.40
2022-08-30T09:22:08.473Z,96.50
2022-08-30T09:24:51.102Z,96.60
2022-08-30T09:27:39.750Z,97.60
2022-08-30T09:30:20.479Z,97.50
2022-08-30T09:32:59.898Z,97.30
2022-08-30T09:35:36.170Z,97.50
2022-08-30T09:40:43.892Z,93.90
2022-08-30T09:43:21.414Z,93.70
2022-08-30T09:46:04.817Z,93.60
2022-08-30T09:48:41.022Z,93.40
2022-08-30T09:51:11.124Z,93.50
2022-08-30T09:54:16.574Z,93.40
2022-08-30T09:57:01.059Z,93.10
2022-08-30T09:59:48.255Z,92.50
2022-08-30T10:02:48.131Z,92.50
2022-08-30T10:05:14.826Z,91.60
2022-08-30T10:07:47.808Z,92.20
2022-08-30T10:10:18.262Z,91.80
2022-08-30T10:13:03.700Z,91.60
2022-08-30T10:15:40.122Z,99.90
2022-08-30T10:18:18.981Z,99.90
2022-08-30T10:21:04.564Z,93.70
2022-08-30T10:23:38.749Z,96.80
2022-08-30T10:26:13.630Z,95.00
2022-08-30T10:28:58.782Z,99.90
2022-08-30T10:31:51.780Z,99.90
2022-08-30T10:37:03.167Z,99.90
2022-08-30T10:39:37.174Z,99.90
2022-08-30T10:42:27.914Z,99.90
2022-08-30T10:45:10.330Z,99.90
2022-08-30T10:48:07.196Z,99.90
2022-08-30T10:50:42.499Z,90.70
2022-08-30T10:53:33.963Z,90.30
2022-08-30T10:56:10.722Z,90.20
2022-08-30T10:58:40.960Z,92.80
2022-08-30T11:04:24.843Z,96.90
2022-08-30T11:07:10.408Z,99.80
2022-08-30T11:09:58.112Z,99.20
2022-08-30T11:12:55.137Z,94.60
2022-08-30T11:15:25.454Z,96.80
2022-08-30T11:18:25.117Z,95.60
2022-08-30T11:20:56.218Z,99.20
2022-08-30T11:23:37.908Z,98.80
2022-08-30T11:26:20.299Z,99.60
2022-08-30T11:28:47.421Z,99.90
2022-08-30T11:31:23.698Z,99.30
2022-08-30T11:33:50.542Z,99.40
2022-08-30T11:39:10.092Z,99.90
2022-08-30T11:41:42.635Z,96.50
2022-08-30T11:44:31.250Z,98.90
2022-08-30T11:52:30.843Z,80.50
2022-08-30T11:55:27.853Z,81.00
2022-08-30T11:58:27.979Z,79.10
2022-08-30T12:01:40.811Z,79.60
2022-08-30T12:04:15.325Z,77.80
2022-08-30T12:06:42.232Z,77.90
2022-08-30T12:09:24.926Z,78.70
2022-08-30T12:11:57.182Z,78.00
2022-08-30T12:14:53.143Z,78.70
2022-08-30T12:17:44.081Z,78.00
2022-08-30T12:20:22.602Z,78.90
2022-08-30T12:22:51.627Z,77.90
2022-08-30T12:25:25.332Z,78.60
2022-08-30T12:28:07.762Z,77.90
2022-08-30T12:30:38.618Z,78.50
2022-08-30T12:33:05.730Z,77.70
2022-08-30T12:35:33.792Z,77.60
2022-08-30T12:38:05.303Z,77.90
2022-08-30T12:40:35.081Z,77.30
2022-08-30T12:43:05.323Z,78.80
2022-08-30T12:45:39.899Z,78.10
2022-08-30T12:48:11.051Z,77.50
2022-08-30T12:50:56.237Z,77.60
2022-08-30T12:53:39.366Z,77.40
2022-08-30T12:56:13.026Z,77.50
2022-08-30T12:58:44.283Z,91.00
2022-08-30T13:01:26.358Z,81.40
2022-08-30T13:04:02.461Z,80.30
2022-08-30T13:06:43.843Z,79.80
2022-08-30T13:09:35.942Z,79.50
2022-08-30T13:12:09.504Z,79.30
2022-08-30T13:14:39.009Z,79.50
2022-08-30T13:17:12.061Z,78.80
2022-08-30T13:19:45.614Z,79.50
2022-08-30T13:22:33.747Z,79.50
2022-08-30T13:25:01.683Z,82.30
2022-08-30T13:27:29.820Z,82.90
2022-08-30T13:29:57.790Z,90.80
2022-08-30T13:32:27.349Z,94.30
2022-08-30T13:34:54.072Z,93.40
2022-08-30T13:40:17.425Z,92.20
2022-08-30T13:42:44.930Z,75.40
2022-08-30T13:48:05.476Z,74.40
2022-08-30T13:50:35.405Z,75.00
2022-08-30T13:53:02.188Z,76.40
2022-08-30T13:55:29.220Z,74.80
2022-08-30T13:57:57.330Z,74.80
2022-08-30T14:00:25.872Z,74.10
2022-08-30T14:02:57.557Z,74.40
2022-08-30T14:05:54.638Z,73.70
2022-08-30T14:11:12.438Z,75.50
2022-08-30T14:16:31.374Z,73.10
2022-08-30T14:19:02.027Z,73.80
2022-08-30T14:21:29.109Z,81.50
2022-08-30T14:26:37.036Z,72.60
2022-08-30T14:29:09.111Z,72.10
2022-08-30T14:31:41.191Z,71.80
2022-08-30T14:34:09.905Z,71.80
2022-08-30T14:36:40.161Z,71.80
2022-08-30T14:39:10.273Z,72.30
2022-08-30T14:41:47.148Z,83.60
2022-08-30T14:44:17.940Z,80.60
2022-08-30T14:46:45.202Z,81.40
2022-08-30T14:49:13.811Z,87.10
2022-08-30T14:51:41.299Z,86.80
2022-08-30T14:54:09.592Z,85.80
2022-08-30T14:56:38.659Z,71.90
2022-08-30T14:59:05.930Z,69.40
2022-08-30T15:01:33.943Z,78.00
2022-08-30T15:04:04.677Z,76.90
2022-08-30T15:06:37.960Z,68.40
2022-08-30T15:09:09.487Z,68.20
2022-08-30T15:14:06.775Z,66.50
2022-08-30T15:16:36.492Z,66.50
2022-08-30T15:19:05.059Z,67.70
2022-08-30T15:21:33.619Z,69.60
2022-08-30T15:24:02.274Z,91.60
2022-08-30T15:26:29.191Z,90.50
2022-08-30T15:28:56.323Z,86.40
2022-08-30T15:31:28.067Z,86.10
2022-08-30T15:33:57.481Z,97.70
2022-08-30T15:36:25.409Z,69.20
2022-08-30T15:38:55.836Z,71.10
2022-08-30T15:41:23.518Z,71.60
2022-08-30T15:43:52.740Z,71.40
2022-08-30T15:46:31.911Z,74.80
2022-08-30T15:49:14.657Z,79.20
2022-08-30T15:51:46.049Z,96.50
2022-08-30T15:54:17.801Z,93.00
2022-08-30T15:56:45.506Z,89.40
2022-08-30T15:59:15.238Z,78.40
2022-08-30T16:01:44.061Z,77.70
2022-08-30T16:04:11.230Z,77.50
2022-08-30T16:06:40.575Z,72.80
2022-08-30T16:09:09.920Z,73.40
2022-08-30T16:11:37.848Z,73.30
2022-08-30T16:14:06.216Z,73.00
2022-08-30T16:16:33.702Z,72.90
2022-08-30T16:19:01.685Z,73.30
2022-08-30T16:21:30.988Z,73.50
2022-08-30T16:24:00.150Z,73.70
2022-08-30T16:26:27.736Z,73.90
2022-08-30T16:28:55.352Z,73.90
2022-08-30T16:31:23.022Z,73.30
2022-08-30T16:33:53.061Z,73.40
2022-08-30T16:36:21.384Z,75.10
2022-08-30T16:38:49.303Z,73.30
2022-08-30T16:41:24.330Z,74.00
2022-08-30T16:43:53.585Z,73.70
2022-08-30T16:46:23.336Z,73.80
2022-08-30T16:48:54.998Z,73.80
2022-08-30T16:51:27.712Z,73.70
2022-08-30T16:53:56.436Z,73.90
2022-08-30T16:56:25.214Z,74.00
2022-08-30T16:59:01.132Z,73.70
2022-08-30T17:01:32.419Z,74.00
2022-08-30T17:04:02.157Z,74.20
2022-08-30T17:06:29.031Z,74.60
2022-08-30T17:08:57.983Z,75.20
2022-08-30T17:11:25.154Z,76.00
2022-08-30T17:13:52.788Z,76.50
2022-08-30T17:16:28.002Z,77.40
2022-08-30T17:19:12.241Z,77.60
2022-08-30T17:21:39.070Z,77.80
2022-08-30T17:24:06.042Z,77.80
2022-08-30T17:26:35.536Z,78.50
2022-08-30T17:29:03.395Z,78.20
2022-08-30T17:31:34.496Z,78.40
2022-08-30T17:34:04.093Z,78.70
2022-08-30T17:36:36.476Z,79.00
2022-08-30T17:39:10.873Z,79.00
2022-08-30T17:41:45.456Z,79.30
2022-08-30T17:44:18.863Z,79.40
2022-08-30T17:46:47.906Z,79.70
2022-08-30T17:49:17.122Z,79.90
2022-08-30T17:51:45.638Z,80.10
2022-08-30T17:54:17.304Z,80.40
2022-08-30T17:56:44.782Z,80.80
2022-08-30T17:59:15.852Z,81.10
2022-08-30T18:01:44.392Z,81.20
2022-08-30T18:04:14.852Z,81.30
2022-08-30T18:06:46.699Z,81.60
2022-08-30T18:09:13.442Z,81.70
2022-08-30T18:11:41.217Z,82.40
2022-08-30T18:14:10.936Z,81.90
2022-08-30T18:16:39.270Z,82.50
2022-08-30T18:19:23.433Z,82.60
2022-08-30T18:21:50.716Z,82.80
2022-08-30T18:24:17.977Z,82.80
2022-08-30T18:26:46.461Z,83.40
2022-08-30T18:29:25.986Z,83.50
2022-08-30T18:31:56.844Z,83.80
2022-08-30T18:34:23.730Z,84.10
2022-08-30T18:36:50.606Z,92.10
2022-08-30T18:39:17.469Z,90.40
2022-08-30T18:41:44.364Z,84.70
2022-08-30T18:44:27.136Z,84.80
2022-08-30T18:47:00.196Z,85.20
2022-08-30T18:49:32.348Z,85.40
2022-08-30T18:52:08.917Z,85.50
2022-08-30T18:57:20.670Z,85.60
2022-08-30T18:59:48.885Z,86.50
2022-08-30T19:02:19.652Z,86.70
2022-08-30T19:04:49.144Z,86.70
2022-08-30T19:07:19.188Z,86.90
2022-08-30T19:09:46.898Z,87.20
2022-08-30T19:12:14.042Z,87.20
2022-08-30T19:14:41.123Z,97.40
2022-08-30T19:17:07.972Z,95.80
2022-08-30T19:19:37.285Z,95.20
2022-08-30T19:22:14.252Z,94.90
2022-08-30T19:24:41.677Z,95.00
2022-08-30T19:27:12.599Z,95.00
2022-08-30T19:29:42.580Z,95.30
2022-08-30T19:32:11.506Z,95.30
2022-08-30T19:34:44.852Z,95.10
2022-08-30T19:37:13.476Z,95.70
2022-08-30T19:39:46.811Z,96.80
2022-08-30T19:42:13.740Z,99.90
2022-08-30T19:44:40.625Z,99.90
2022-08-30T19:47:07.924Z,99.90
2022-08-30T19:52:07.847Z,99.90
2022-08-30T19:54:34.660Z,99.40
2022-08-30T19:57:01.366Z,99.90
2022-08-30T19:59:28.259Z,96.40
2022-08-30T20:01:56.513Z,95.40
2022-08-30T20:04:23.367Z,95.00
2022-08-30T20:06:50.985Z,94.30
2022-08-30T20:09:17.848Z,95.20
2022-08-30T20:11:44.623Z,95.50
2022-08-30T20:14:13.940Z,95.80
2022-08-30T20:16:41.301Z,96.00
2022-08-30T20:19:09.496Z,96.20
2022-08-30T20:21:36.885Z,96.20
2022-08-30T20:24:04.872Z,95.90
2022-08-30T20:26:36.987Z,95.60
2022-08-30T20:29:05.361Z,95.60
2022-08-30T20:31:32.223Z,97.20
2022-08-30T20:33:59.127Z,99.90
2022-08-30T20:36:25.913Z,99.90
2022-08-30T20:41:24.956Z,99.90
2022-08-30T20:43:52.878Z,99.90
2022-08-30T20:46:20.629Z,99.90
2022-08-30T20:48:47.560Z,99.90
2022-08-30T20:51:19.768Z,99.90
2022-08-30T20:53:46.988Z,99.90
2022-08-30T20:56:15.966Z,99.90
2022-08-30T20:58:43.187Z,99.90
2022-08-30T21:01:11.275Z,99.90
2022-08-30T21:03:40.895Z,99.90
2022-08-30T21:06:07.956Z,99.90
2022-08-30T21:08:35.408Z,99.90
2022-08-30T21:11:02.152Z,99.90
2022-08-30T21:13:31.158Z,99.90
2022-08-30T21:16:03.276Z,99.90
2022-08-30T21:18:33.172Z,99.90
2022-08-30T21:21:22.174Z,99.90
2022-08-30T21:23:50.215Z,99.90
2022-08-30T21:26:18.185Z,99.90
2022-08-30T21:28:47.967Z,99.90
2022-08-30T21:31:17.648Z,99.90
2022-08-30T21:33:44.558Z,99.90
2022-08-30T21:36:30.682Z,99.90
2022-08-30T21:39:00.723Z,99.90
2022-08-30T21:41:28.662Z,99.90
2022-08-30T21:44:00.319Z,99.90
2022-08-30T21:46:29.110Z,99.90
2022-08-30T21:49:01.477Z,99.90
2022-08-30T21:51:31.754Z,99.90
2022-08-30T21:54:02.324Z,99.90
2022-08-30T21:56:29.830Z,99.60
2022-08-30T21:58:56.690Z,99.40
2022-08-30T22:01:28.728Z,99.30
2022-08-30T22:04:00.245Z,99.50
2022-08-30T22:06:32.210Z,99.10
2022-08-30T22:09:01.281Z,98.90
2022-08-30T22:11:28.844Z,98.80
2022-08-30T22:13:56.296Z,99.00
2022-08-30T22:16:26.035Z,99.30
2022-08-30T22:18:55.267Z,99.50
2022-08-30T22:21:24.917Z,99.60
2022-08-30T22:23:52.261Z,99.20
2022-08-30T22:26:20.680Z,98.80
2022-08-30T22:28:47.887Z,97.70
2022-08-30T22:31:16.793Z,97.70
2022-08-30T22:33:44.558Z,97.90
2022-08-30T22:36:15.375Z,99.90
2022-08-30T22:38:42.608Z,99.90
2022-08-30T22:41:19.269Z,99.90
2022-08-30T22:43:53.246Z,99.90
2022-08-30T22:46:21.220Z,99.90
2022-08-30T22:49:01.129Z,99.90
2022-08-30T22:51:28.162Z,99.90
2022-08-30T22:53:54.862Z,99.70
2022-08-30T22:56:24.958Z,99.50
2022-08-30T22:58:52.966Z,99.30
2022-08-30T23:01:22.634Z,99.40
2022-08-30T23:03:50.709Z,99.90
2022-08-30T23:06:17.743Z,99.90
2022-08-30T23:08:44.875Z,99.90
2022-08-30T23:11:11.855Z,99.90
2022-08-30T23:13:41.585Z,99.90
2022-08-30T23:16:12.455Z,99.90
2022-08-30T23:18:41.704Z,99.90
2022-08-30T23:21:18.588Z,99.90
2022-08-30T23:24:03.764Z,99.90
2022-08-30T23:26:49.279Z,99.90
2022-08-30T23:29:35.300Z,99.90
2022-08-30T23:32:20.626Z,99.90
2022-08-30T23:37:53.227Z,97.20
2022-08-30T23:40:41.413Z,97.90
2022-08-30T23:43:28.266Z,99.30
2022-08-30T23:46:16.969Z,99.90
2022-08-30T23:49:08.213Z,99.90
2022-08-30T23:51:56.466Z,99.90
2022-08-30T23:54:42.527Z,99.90
2022-08-30T23:57:30.514Z,99.90
